MDPP/POP METAR and TAF weather

Enter ICAO airport designator
Station Type Date Time Source
MDPP METAR 2022/06/28 06:00 UTC NOAA

MDPP 280600Z 00000KT 9999 FEW016 26/24 Q1016


Station Type Date Time Source
MDPP Decoded METAR 2022/06/28 06:00 UTC NOAA

Puerto Plata International, Dominican Republic (MDPP) 19-45N 070-33W
Jun 28, 2022 - 02:00 AM EDT / 2022.06.28 0600 UTC
Wind: Calm:0
Visibility: greater than 7 mile(s):0
Sky conditions: mostly clear
Temperature: 78 F (26 C)
Dew Point: 75 F (24 C)
Relative Humidity: 88%
Pressure (altimeter): 30.00 in. Hg (1016 hPa)
ob: MDPP 280600Z 00000KT 9999 FEW016 26/24 Q1016
cycle: 6

Station Type Date Time Source
MDPP TAF 2022/06/28 06:39 UTC NOAA

TAF MDPP 280400Z 2806/2906 00000KT 9999 FEW018 SCT300 PROB30 2806/2812 8000-TSRA FEW016CB BKN016 BKN070

Example: see airport list